Moro, Oregon
Current Conditions -  °F | °C
As of 10:53 AM on Saturday 25 Oct 2014 (Local Time) from KDLS Reporting Station
Overcast Overcast  
Wind Chill: 54°   Ceiling: 2800
Heat Index: 54°   Visibility: 10mi
Dew Point: 49°   Wind: 7mph
Humidity: 83%   Direction: 110°ESE
Pressure: 29.59"   Gusts: NA
Location:  45.48°N, 120.73°W
Report Text: KDLS 251753Z AUTO 11006KT 10SM SCT022 OVC028 12/09 A2959 RMK AO2 SLP020 T01220094 10122 20106 58021
Loading
Personal Weather Stations






























Interactive Weather Map
Tropical Storm Tracking
New forecast layout! Learn more

10-Day Weather Forecast

Advertisements
Track Severe Weather on mobile